Time;durP1;ratioP1;P1;durP2;ratioP2;P2;SDS_P1;SDS_P2;PMS_P1;PMS_P2;Temp;Humidity;BMP_temperature;BMP_pressure;BME280_temperature;BME280_humidity;BME280_pressure;Samples;Min_cycle;Max_cycle;Signal;HPM_P1;HPM_P2
2022/01/17 00:00:25;;;;;;;36.70;32.90;;;;;;;3.25;77.70;100401.83;109464;1262;23716;-79
2022/01/17 00:03:16;;;;;;;38.60;33.70;;;;;;;3.24;77.69;100399.33;109843;1263;22046;-80
2022/01/17 00:05:51;;;;;;;39.50;35.00;;;;;;;3.26;77.89;100399.50;109420;1265;21992;-78
2022/01/17 00:08:26;;;;;;;38.90;34.70;;;;;;;3.29;77.81;100396.16;109110;1265;21984;-79
2022/01/17 00:11:01;;;;;;;39.20;34.00;;;;;;;3.29;77.68;100382.74;109394;1265;23643;-79
2022/01/17 00:13:33;;;;;;;40.20;34.50;;;;;;;3.29;77.72;100374.74;109291;1269;22648;-79
2022/01/17 00:16:20;;;;;;;40.20;35.90;;;;;;;3.29;77.73;100373.70;109262;1266;23059;-79
2022/01/17 00:22:03;;;;;;;41.10;36.20;;;;;;;3.31;77.81;100355.46;109008;1270;21982;-79
2022/01/17 00:24:32;;;;;;;39.30;34.90;;;;;;;3.32;77.75;100354.55;109280;1265;21991;-79
2022/01/17 00:27:03;;;;;;;37.40;33.50;;;;;;;3.34;77.72;100349.31;109379;1263;21969;-79
2022/01/17 00:29:34;;;;;;;39.20;34.50;;;;;;;3.37;77.82;100341.26;109631;1262;22517;-79
2022/01/17 00:32:06;;;;;;;40.30;36.00;;;;;;;3.40;77.82;100340.42;109417;1263;23076;-79
2022/01/17 00:34:42;;;;;;;42.40;35.20;;;;;;;3.43;77.74;100345.26;109371;1267;22010;-79
2022/01/17 00:37:14;;;;;;;38.20;34.30;;;;;;;3.45;77.89;100349.48;109145;1268;22436;-80
2022/01/17 00:39:49;;;;;;;42.00;36.00;;;;;;;3.47;77.80;100348.41;108764;1268;22069;-80
2022/01/17 00:42:21;;;;;;;38.30;34.30;;;;;;;3.50;77.67;100341.02;109133;1270;23065;-79
2022/01/17 00:44:50;;;;;;;40.00;34.60;;;;;;;3.51;77.61;100337.13;108927;1270;21981;-79
2022/01/17 00:47:24;;;;;;;39.10;34.80;;;;;;;3.52;77.63;100331.84;109064;1271;23061;-80
2022/01/17 00:49:56;;;;;;;41.80;37.30;;;;;;;3.53;77.62;100331.73;109056;1268;22048;-79
2022/01/17 00:52:25;;;;;;;;;;;;;;;3.55;77.59;100326.86;109154;1268;23046;-80
2022/01/17 00:54:55;;;;;;;39.00;34.70;;;;;;;3.50;77.62;100316.83;109255;1267;22118;-80
2022/01/17 00:57:24;;;;;;;40.90;36.40;;;;;;;3.50;77.68;100312.17;109447;1264;23761;-79
2022/01/17 01:00:05;;;;;;;41.20;35.60;;;;;;;3.50;77.62;100313.05;109576;1262;21973;-80
2022/01/17 01:02:35;;;;;;;38.50;34.40;;;;;;;3.49;77.56;100298.50;109662;1259;23801;-80
2022/01/17 01:05:14;;;;;;;39.30;35.30;;;;;;;3.48;77.68;100296.96;110513;1257;22020;-78
2022/01/17 01:07:54;;;;;;;40.10;35.50;;;;;;;3.50;77.67;100288.11;110496;1257;23758;-79
2022/01/17 01:10:23;;;;;;;38.50;34.50;;;;;;;3.50;77.69;100287.60;109978;1259;21978;-78
2022/01/17 01:12:58;;;;;;;37.80;34.00;;;;;;;3.52;77.82;100285.14;110188;1257;21972;-80
2022/01/17 01:18:30;;;;;;;35.90;32.20;;;;;;;3.55;77.92;100278.34;109244;1267;21990;-78
2022/01/17 01:29:47;;;;;;;34.70;30.90;;;;;;;3.58;77.99;100271.45;109038;1271;21998;-80
2022/01/17 01:32:21;;;;;;;35.50;31.60;;;;;;;3.58;77.98;100267.44;109060;1272;22010;-79
2022/01/17 01:34:54;;;;;;;33.50;30.10;;;;;;;3.59;77.92;100259.35;109282;1269;21982;-79
2022/01/17 01:37:29;;;;;;;33.70;30.20;;;;;;;3.62;77.97;100254.10;109484;1264;22072;-79
2022/01/17 01:39:58;;;;;;;34.60;31.10;;;;;;;3.63;77.97;100250.73;109940;1259;21967;-79
2022/01/17 01:42:29;;;;;;;33.80;30.40;;;;;;;3.64;78.01;100253.92;110465;1257;22005;-80
2022/01/17 01:45:05;;;;;;;31.20;28.10;;;;;;;3.64;77.99;100250.95;110321;1257;21979;-79
2022/01/17 01:47:35;;;;;;;32.60;29.40;;;;;;;3.64;78.03;100243.63;110307;1257;22179;-79
2022/01/17 01:50:11;;;;;;;30.80;27.50;;;;;;;3.66;78.11;100231.94;110467;1257;21967;-80
2022/01/17 01:52:46;;;;;;;32.40;29.30;;;;;;;3.68;78.12;100221.04;110284;1258;24281;-78
2022/01/17 01:55:21;;;;;;;28.80;26.00;;;;;;;3.69;78.08;100222.31;110539;1253;21962;-79
2022/01/17 01:57:50;;;;;;;29.80;26.90;;;;;;;3.71;78.01;100222.13;110733;1253;21974;-79
2022/01/17 02:00:26;;;;;;;30.00;27.00;;;;;;;3.73;77.97;100211.00;110904;1253;21953;-79
2022/01/17 02:03:05;;;;;;;29.40;26.50;;;;;;;3.74;78.01;100206.06;110819;1253;23600;-80
2022/01/17 02:05:35;;;;;;;26.90;24.20;;;;;;;3.75;77.99;100201.91;110704;1253;21978;-80
2022/01/17 02:08:05;;;;;;;28.40;25.50;;;;;;;3.78;77.95;100193.90;110830;1253;23106;-80
2022/01/17 02:10:35;;;;;;;26.20;23.60;;;;;;;3.80;77.86;100191.48;110134;1259;22011;-79
2022/01/17 02:13:06;;;;;;;27.20;24.40;;;;;;;3.82;77.88;100192.71;110087;1259;22982;-79
2022/01/17 02:15:40;;;;;;;27.20;24.60;;;;;;;3.83;77.90;100192.05;110121;1259;22014;-79
2022/01/17 02:18:22;;;;;;;26.10;23.70;;;;;;;3.86;77.87;100184.90;109490;1266;22095;-79
2022/01/17 02:23:40;;;;;;;25.90;23.20;;;;;;;3.88;77.79;100182.05;109442;1266;21989;-79
2022/01/17 02:26:10;;;;;;;26.30;23.70;;;;;;;3.90;77.77;100178.74;109165;1267;22450;-78
2022/01/17 02:28:47;;;;;;;24.90;22.40;;;;;;;3.92;77.66;100174.93;109258;1264;22750;-80
2022/01/17 02:31:18;;;;;;;24.10;21.70;;;;;;;3.93;77.56;100169.92;108980;1270;22073;-80
2022/01/17 02:33:52;;;;;;;24.30;21.90;;;;;;;3.94;77.56;100165.67;108694;1273;23052;-79
2022/01/17 02:36:22;;;;;;;24.20;21.90;;;;;;;3.97;77.58;100162.85;108812;1267;22033;-79
2022/01/17 02:38:51;;;;;;;22.40;20.30;;;;;;;3.99;77.48;100156.23;108907;1268;22845;-79
2022/01/17 02:41:20;;;;;;;29.70;21.60;;;;;;;4.00;77.42;100145.70;109165;1267;23086;-80
2022/01/17 02:43:50;;;;;;;22.50;20.20;;;;;;;4.01;77.41;100144.02;108654;1276;22014;-79
2022/01/17 02:46:25;;;;;;;22.00;19.70;;;;;;;4.02;77.28;100141.38;108706;1270;22036;-80
2022/01/17 02:48:58;;;;;;;23.20;20.90;;;;;;;4.03;77.14;100135.20;109002;1267;23096;-79
2022/01/17 02:51:31;;;;;;;21.80;19.50;;;;;;;4.04;77.17;100136.30;109554;1260;22451;-79
2022/01/17 02:54:02;;;;;;;23.20;21.00;;;;;;;4.06;77.22;100132.84;109401;1264;23691;-79
2022/01/17 02:56:37;;;;;;;22.70;20.60;;;;;;;4.07;77.09;100136.51;109395;1265;22189;-79
2022/01/17 02:59:07;;;;;;;22.00;19.80;;;;;;;4.09;77.07;100135.66;109400;1264;22010;-80
2022/01/17 03:01:36;;;;;;;20.70;18.20;;;;;;;4.11;77.01;100129.77;109638;1259;21985;-79
2022/01/17 03:04:05;;;;;;;18.90;17.10;;;;;;;4.13;76.92;100123.48;110237;1259;22271;-79
2022/01/17 03:06:35;;;;;;;19.30;17.30;;;;;;;4.15;76.77;100115.48;110271;1259;23759;-78
2022/01/17 03:09:04;;;;;;;19.50;17.70;;;;;;;4.16;76.72;100117.45;110236;1259;22221;-78
2022/01/17 03:11:33;;;;;;;22.60;20.30;;;;;;;4.17;76.67;100119.29;110292;1253;21965;-79
2022/01/17 03:14:07;;;;;;;20.40;18.50;;;;;;;4.17;76.50;100123.11;110712;1253;23597;-80
2022/01/17 03:16:45;;;;;;;20.90;18.60;;;;;;;4.17;76.44;100125.75;110717;1256;21983;-79
2022/01/17 03:19:16;;;;;;;21.00;18.80;;;;;;;4.18;76.43;100124.80;110369;1259;21984;-79
2022/01/17 03:21:45;;;;;;;18.80;17.00;;;;;;;4.19;76.46;100116.33;110064;1259;22026;-81
2022/01/17 03:24:14;;;;;;;17.90;16.10;;;;;;;4.20;76.45;100109.92;110018;1259;21965;-80
2022/01/17 03:26:47;;;;;;;18.70;16.90;;;;;;;4.21;76.32;100106.35;109970;1263;23127;-80
2022/01/17 03:29:17;;;;;;;20.50;18.50;;;;;;;4.23;76.26;100110.77;109470;1264;23771;-80
2022/01/17 03:31:46;;;;;;;19.80;17.70;;;;;;;4.24;76.25;100112.72;109488;1264;23076;-80
2022/01/17 03:34:15;;;;;;;19.90;17.80;;;;;;;4.25;76.22;100104.13;109151;1267;22307;-81
2022/01/17 03:36:45;;;;;;;19.10;17.10;;;;;;;4.27;76.25;100099.59;109216;1263;21983;-80
2022/01/17 03:39:15;;;;;;;20.10;17.40;;;;;;;4.29;76.11;100094.05;109883;1261;23010;-79
2022/01/17 03:41:47;;;;;;;17.30;15.60;;;;;;;4.30;76.12;100084.05;109551;1262;21977;-78
2022/01/17 03:44:18;;;;;;;17.90;16.20;;;;;;;4.32;76.03;100078.46;109807;1259;21972;-78
2022/01/17 03:46:52;;;;;;;19.50;17.10;;;;;;;4.33;75.96;100078.02;110250;1257;21968;-78
2022/01/17 03:49:22;;;;;;;18.60;16.70;;;;;;;4.34;75.92;100079.63;110264;1257;21965;-78
2022/01/17 03:51:53;;;;;;;19.60;17.50;;;;;;;4.35;75.87;100080.92;110433;1253;23226;-79
2022/01/17 03:54:22;;;;;;;18.40;16.50;;;;;;;4.36;75.74;100083.36;110644;1256;23049;-78
2022/01/17 03:56:52;;;;;;;20.60;16.40;;;;;;;4.36;75.69;100080.89;110375;1253;22929;-78
2022/01/17 03:59:25;;;;;;;18.80;16.90;;;;;;;4.37;75.63;100073.86;110468;1253;21988;-78
2022/01/17 04:01:54;;;;;;;19.40;16.80;;;;;;;4.37;75.53;100068.73;110491;1253;21950;-79
2022/01/17 04:04:23;;;;;;;16.70;15.00;;;;;;;4.37;75.48;100068.21;110655;1253;21969;-79
2022/01/17 04:06:53;;;;;;;16.90;15.10;;;;;;;4.39;75.50;100055.52;110811;1253;23704;-79
2022/01/17 04:09:22;;;;;;;19.30;16.70;;;;;;;4.40;75.33;100055.58;110665;1253;21997;-78
2022/01/17 04:11:51;;;;;;;18.30;16.30;;;;;;;4.42;75.32;100048.37;110915;1253;23021;-78
2022/01/17 04:14:20;;;;;;;17.30;15.40;;;;;;;4.44;75.25;100047.37;109947;1259;22736;-79
2022/01/17 04:16:52;;;;;;;17.60;15.70;;;;;;;4.45;75.11;100046.63;110226;1259;23573;-79
2022/01/17 04:19:21;;;;;;;16.70;14.80;;;;;;;4.45;75.00;100034.58;109791;1259;21987;-79
2022/01/17 04:21:57;;;;;;;16.40;14.60;;;;;;;4.45;74.99;100024.06;109484;1264;21998;-79
2022/01/17 04:24:27;;;;;;;17.20;15.40;;;;;;;4.47;74.97;100015.56;109477;1264;21990;-80
2022/01/17 04:26:59;;;;;;;18.90;16.90;;;;;;;4.49;74.96;100008.92;109481;1264;23049;-80
2022/01/17 04:29:31;;;;;;;19.50;16.60;;;;;;;4.51;74.83;99998.65;109292;1264;23753;-78
2022/01/17 04:32:02;;;;;;;19.70;15.80;;;;;;;4.52;74.74;99999.20;109611;1259;22775;-79
2022/01/17 04:34:32;;;;;;;15.90;14.00;;;;;;;4.53;74.62;99999.33;110179;1259;22907;-80
2022/01/17 04:37:08;;;;;;;17.20;14.20;;;;;;;4.54;74.52;100012.54;110268;1258;21987;-79
2022/01/17 04:39:38;;;;;;;16.60;14.40;;;;;;;4.54;74.45;100023.48;110202;1253;21984;-80
2022/01/17 04:42:12;;;;;;;17.00;14.60;;;;;;;4.54;74.38;100033.29;110747;1253;22016;-80
2022/01/17 04:47:31;;;;;;;17.10;14.90;;;;;;;4.52;74.30;100020.05;110660;1253;23056;-78
2022/01/17 04:50:00;;;;;;;15.60;13.30;;;;;;;4.50;74.34;100014.04;110771;1253;23670;-80
2022/01/17 04:52:35;;;;;;;15.80;13.10;;;;;;;4.50;74.39;100010.64;110274;1256;22744;-80
2022/01/17 04:55:15;;;;;;;16.80;12.40;;;;;;;4.50;74.32;100010.25;110349;1256;22072;-80
2022/01/17 04:57:46;;;;;;;14.90;13.30;;;;;;;4.50;74.48;100001.65;110150;1256;21988;-80
2022/01/17 05:00:20;;;;;;;22.50;13.90;;;;;;;4.50;74.49;100001.90;110315;1256;23115;-80
2022/01/17 05:02:49;;;;;;;19.90;12.60;;;;;;;4.50;74.44;99999.42;110214;1256;23681;-81
2022/01/17 05:05:19;;;;;;;17.80;14.90;;;;;;;4.51;74.53;99998.84;110473;1256;23079;-79
2022/01/17 05:07:49;;;;;;;17.60;14.10;;;;;;;4.51;74.54;99993.94;110484;1256;21968;-79
2022/01/17 05:10:25;;;;;;;16.70;14.30;;;;;;;4.51;74.53;99994.48;110532;1253;22006;-78
2022/01/17 05:12:54;;;;;;;16.10;14.10;;;;;;;4.50;74.59;100002.17;110495;1253;21975;-78
2022/01/17 05:15:36;;;;;;;17.40;14.10;;;;;;;4.50;74.64;100002.20;110401;1253;21977;-78
2022/01/17 05:19:48;;;;;;;18.40;14.60;;;;;;;4.50;74.70;100003.58;110798;1253;22257;-77
2022/01/17 05:21:24;;;;;;;19.20;13.60;;;;;;;4.46;74.72;99995.23;110884;1253;21974;-79
2022/01/17 05:23:53;;;;;;;16.80;13.80;;;;;;;4.45;74.98;99989.73;110752;1253;22043;-79
2022/01/17 05:26:34;;;;;;;16.80;14.00;;;;;;;4.46;74.96;99981.77;110285;1257;22158;-79
2022/01/17 05:29:06;;;;;;;18.60;15.30;;;;;;;4.47;74.92;99974.75;110207;1258;22289;-79
2022/01/17 05:31:44;;;;;;;17.20;13.60;;;;;;;4.47;74.97;99974.75;110138;1258;23009;-79
2022/01/17 05:34:21;;;;;;;19.30;14.90;;;;;;;4.47;74.99;99976.48;109454;1264;21990;-79
2022/01/17 05:36:50;;;;;;;15.00;12.90;;;;;;;4.45;74.96;99977.23;109593;1264;22082;-80
2022/01/17 05:39:23;;;;;;;14.40;12.90;;;;;;;4.44;75.00;99971.39;109426;1264;21983;-79
2022/01/17 05:41:52;;;;;;;21.30;13.50;;;;;;;4.43;75.15;99970.56;109512;1265;22036;-79
2022/01/17 05:44:25;;;;;;;14.60;13.10;;;;;;;4.42;75.07;99966.98;109642;1259;21986;-78
2022/01/17 05:46:54;;;;;;;15.80;12.20;;;;;;;4.42;75.14;99957.41;110005;1259;23587;-79
2022/01/17 05:49:26;;;;;;;12.10;10.80;;;;;;;4.42;75.26;99954.08;110046;1259;23586;-79
2022/01/17 05:51:58;;;;;;;19.30;11.20;;;;;;;4.42;75.25;99941.52;110175;1253;22429;-79
2022/01/17 05:54:27;;;;;;;12.50;10.90;;;;;;;4.42;75.24;99935.10;110777;1253;21977;-78
2022/01/17 05:56:56;;;;;;;11.60;9.90;;;;;;;4.42;75.20;99927.79;110497;1254;21966;-78
2022/01/17 05:59:28;;;;;;;11.70;9.80;;;;;;;4.41;75.21;99924.17;110984;1253;22892;-84
2022/01/17 06:02:01;;;;;;;13.00;9.90;;;;;;;4.46;75.51;99923.27;110982;1253;22740;-84
2022/01/17 06:04:31;;;;;;;11.30;9.30;;;;;;;4.54;75.61;99916.92;110753;1256;21977;-80
2022/01/17 06:07:00;;;;;;;11.10;9.50;;;;;;;4.54;75.22;99903.65;110461;1254;422346;-79
2022/01/17 06:09:30;;;;;;;10.00;8.30;;;;;;;4.54;75.06;99896.91;110761;1254;21974;-79
2022/01/17 06:11:59;;;;;;;11.80;9.50;;;;;;;4.52;75.01;99881.91;110756;1254;21977;-79
2022/01/17 06:14:30;;;;;;;11.60;9.00;;;;;;;4.52;74.94;99873.03;110643;1254;23170;-78
2022/01/17 06:17:14;;;;;;;10.20;7.80;;;;;;;4.51;74.89;99864.20;110139;1258;23606;-81
2022/01/17 06:19:56;;;;;;;8.40;6.40;;;;;;;4.46;74.87;99845.08;110203;1260;23683;-80
2022/01/17 06:22:26;;;;;;;8.60;7.00;;;;;;;4.44;74.90;99838.01;110230;1261;21986;-80
2022/01/17 06:24:55;;;;;;;11.10;7.20;;;;;;;4.43;74.88;99821.67;109833;1259;23597;-79
2022/01/17 06:27:24;;;;;;;8.70;6.00;;;;;;;4.42;74.87;99805.05;109841;1259;21990;-81
2022/01/17 06:29:53;;;;;;;16.50;10.10;;;;;;;4.41;74.90;99795.03;110077;1259;21983;-80
2022/01/17 06:32:31;;;;;;;10.40;7.00;;;;;;;4.41;74.89;99788.91;109272;1267;23786;-79
2022/01/17 06:35:09;;;;;;;13.10;8.30;;;;;;;4.40;74.78;99784.16;109376;1261;21996;-79
2022/01/17 06:37:39;;;;;;;13.70;7.20;;;;;;;4.37;74.76;99774.29;110086;1261;22785;-80
2022/01/17 06:40:09;;;;;;;13.70;7.40;;;;;;;4.35;74.71;99772.42;109350;1264;21984;-79
2022/01/17 06:42:50;;;;;;;14.30;8.50;;;;;;;4.35;74.78;99771.90;109014;1272;21997;-81
2022/01/17 06:45:35;;;;;;;16.50;7.90;;;;;;;4.35;74.77;99765.93;108973;1273;23043;-80
2022/01/17 06:48:12;;;;;;;12.60;8.30;;;;;;;4.36;74.75;99750.19;109050;1270;22291;-81
2022/01/17 06:50:51;;;;;;;12.90;8.10;;;;;;;4.36;74.78;99739.36;109285;1264;21972;-81
2022/01/17 06:53:20;;;;;;;13.00;7.20;;;;;;;4.36;74.86;99726.04;109548;1264;22300;-81
2022/01/17 06:55:57;;;;;;;11.30;6.50;;;;;;;4.36;74.86;99718.21;109428;1266;22916;-79
2022/01/17 06:58:31;;;;;;;10.00;6.90;;;;;;;4.37;74.90;99714.01;109100;1265;23587;-80
2022/01/17 07:01:17;;;;;;;;;;;;;;;4.37;74.99;99707.13;110167;1257;22752;-81
2022/01/17 07:03:53;;;;;;;12.90;6.30;;;;;;;4.32;75.02;99708.19;110414;1259;22125;-80
2022/01/17 07:06:28;;;;;;;11.10;6.50;;;;;;;4.31;75.16;99714.85;109940;1257;24401;-79
2022/01/17 07:08:58;;;;;;;11.20;6.50;;;;;;;4.35;75.16;99726.17;110271;1259;21945;-79
2022/01/17 07:11:31;;;;;;;8.30;5.70;;;;;;;4.38;75.07;99735.53;110296;1256;23662;-80
2022/01/17 07:14:02;;;;;;;8.50;5.00;;;;;;;4.41;75.02;99747.91;110477;1259;23027;-80
2022/01/17 07:16:36;;;;;;;9.20;4.90;;;;;;;4.45;74.99;99754.53;109637;1259;23035;-80
2022/01/17 07:19:23;;;;;;;8.50;4.60;;;;;;;4.47;74.93;99764.79;109415;1265;23606;-80
2022/01/17 07:22:00;;;;;;;10.80;5.70;;;;;;;4.49;74.83;99770.21;109481;1264;23670;-80
2022/01/17 07:25:00;;;;;;;12.00;4.70;;;;;;;4.51;74.71;99779.31;108945;1270;24188;-80
2022/01/17 07:27:48;;;;;;;6.60;4.00;;;;;;;4.52;74.65;99777.24;109125;1270;23738;-80
2022/01/17 07:30:33;;;;;;;7.30;3.90;;;;;;;4.54;74.53;99736.75;108933;1270;21992;-79
2022/01/17 07:33:20;;;;;;;9.90;4.30;;;;;;;4.54;74.47;99705.23;109130;1270;22105;-80
2022/01/17 07:35:58;;;;;;;6.90;4.20;;;;;;;4.57;74.44;99693.47;109427;1267;22008;-79
2022/01/17 07:38:34;;;;;;;7.70;4.40;;;;;;;4.59;74.22;99672.64;109528;1261;22977;-80
2022/01/17 07:41:26;;;;;;;5.50;3.60;;;;;;;4.59;74.08;99660.24;109902;1261;21975;-80
2022/01/17 07:44:19;;;;;;;8.80;4.10;;;;;;;4.59;74.04;99647.58;110294;1256;24302;-80
2022/01/17 07:46:56;;;;;;;7.60;4.20;;;;;;;4.59;73.93;99662.76;110022;1258;23610;-79
2022/01/17 07:49:53;;;;;;;6.60;4.00;;;;;;;4.58;73.93;99663.31;109986;1260;21973;-80
2022/01/17 07:52:42;;;;;;;7.60;4.30;;;;;;;4.60;73.85;99683.87;109284;1267;22840;-79
2022/01/17 07:55:15;;;;;;;7.60;4.20;;;;;;;4.62;73.82;99669.37;109151;1268;22068;-80
2022/01/17 07:57:51;;;;;;;8.30;4.40;;;;;;;4.63;73.79;99662.13;108998;1270;23708;-80
2022/01/17 08:00:31;;;;;;;8.60;4.40;;;;;;;4.63;73.73;99643.01;108968;1270;22013;-80
2022/01/17 08:03:03;;;;;;;6.10;4.00;;;;;;;4.59;73.73;99626.23;108602;1276;21988;-79
2022/01/17 08:05:34;;;;;;;7.20;3.90;;;;;;;4.58;73.71;99621.84;108696;1272;21998;-80
2022/01/17 08:08:04;;;;;;;8.10;4.70;;;;;;;4.57;73.78;99612.19;108919;1273;23144;-80
2022/01/17 08:10:39;;;;;;;10.10;4.30;;;;;;;4.56;73.82;99596.19;108733;1273;23008;-81
2022/01/17 08:13:20;;;;;;;12.20;5.60;;;;;;;4.56;73.89;99599.36;108799;1270;23605;-80
2022/01/17 08:16:11;;;;;;;8.20;4.50;;;;;;;4.57;73.91;99586.52;108950;1267;22006;-80
2022/01/17 08:18:43;;;;;;;10.90;4.00;;;;;;;4.58;74.01;99586.29;109420;1267;22011;-80
2022/01/17 08:21:17;;;;;;;9.30;4.50;;;;;;;4.58;74.01;99603.34;109181;1267;22979;-80
2022/01/17 08:23:50;;;;;;;7.10;4.30;;;;;;;4.58;74.12;99607.21;109037;1270;22002;-81
2022/01/17 08:26:26;;;;;;;6.30;3.80;;;;;;;4.57;74.19;99607.80;109040;1270;21995;-79
2022/01/17 08:29:20;;;;;;;8.70;3.60;;;;;;;4.56;74.24;99615.05;109418;1262;22508;-81
2022/01/17 08:31:59;;;;;;;6.30;4.00;;;;;;;4.55;74.42;99617.75;109814;1262;21976;-80
2022/01/17 08:34:34;;;;;;;5.70;3.20;;;;;;;4.56;74.51;99602.17;109904;1260;22029;-80
2022/01/17 08:37:11;;;;;;;8.90;4.10;;;;;;;4.57;74.60;99584.59;109482;1264;22454;-79
2022/01/17 08:39:49;;;;;;;8.00;3.20;;;;;;;4.58;74.61;99572.44;109343;1264;23723;-80
2022/01/17 08:42:40;;;;;;;;;;;;;;;;;;;;;
2022/01/17 08:45:14;;;;;;;9.70;4.60;;;;;;;4.58;74.76;99551.71;109618;1264;22049;-80
2022/01/17 08:48:06;;;;;;;8.10;4.10;;;;;;;4.57;74.94;99542.93;109510;1266;23616;-80
2022/01/17 08:50:46;;;;;;;7.00;3.10;;;;;;;4.58;74.99;99539.86;109494;1265;22777;-80
2022/01/17 08:53:16;;;;;;;9.80;4.40;;;;;;;4.58;75.03;99515.98;109894;1264;22934;-80
2022/01/17 08:55:57;;;;;;;10.50;5.50;;;;;;;4.58;75.17;99525.91;109864;1261;21986;-79
2022/01/17 08:58:34;;;;;;;8.30;4.50;;;;;;;4.59;75.28;99527.95;109577;1265;21975;-79
2022/01/17 09:01:05;;;;;;;8.30;4.80;;;;;;;4.58;75.40;99531.16;109355;1265;23656;-79
2022/01/17 09:03:44;;;;;;;6.10;3.60;;;;;;;4.57;75.47;99536.48;109000;1270;23869;-79
2022/01/17 09:06:14;;;;;;;10.20;5.00;;;;;;;4.57;75.63;99532.77;109241;1270;22052;-80
2022/01/17 09:08:45;;;;;;;8.60;4.30;;;;;;;4.59;75.65;99523.36;108791;1273;22019;-80
2022/01/17 09:11:22;;;;;;;8.30;4.70;;;;;;;4.60;75.78;99524.33;108670;1276;23185;-78
2022/01/17 09:13:57;;;;;;;10.20;4.90;;;;;;;4.62;75.92;99535.42;108434;1278;22026;-78
2022/01/17 09:16:36;;;;;;;8.60;3.60;;;;;;;4.65;75.88;99533.98;108671;1273;22045;-78
2022/01/17 09:19:13;;;;;;;7.90;3.30;;;;;;;4.66;76.03;99546.26;108483;1276;23045;-79
2022/01/17 09:21:46;;;;;;;5.80;3.80;;;;;;;4.67;76.11;99533.91;108557;1276;22016;-79
2022/01/17 09:24:18;;;;;;;7.20;3.20;;;;;;;4.70;76.14;99525.73;108445;1276;23775;-79
2022/01/17 09:26:48;;;;;;;7.70;4.60;;;;;;;4.74;76.28;99538.65;108875;1272;22004;-80
2022/01/17 09:29:29;;;;;;;5.10;3.20;;;;;;;4.78;76.24;99525.73;108976;1262;22116;-79
2022/01/17 09:32:09;;;;;;;6.20;4.10;;;;;;;4.80;76.20;99514.17;109344;1264;21975;-79
2022/01/17 09:34:41;;;;;;;7.90;4.30;;;;;;;4.80;76.19;99506.45;109470;1263;22023;-79
2022/01/17 09:37:11;;;;;;;7.00;4.00;;;;;;;4.82;76.23;99504.38;109039;1265;23619;-78
2022/01/17 09:39:46;;;;;;;11.50;6.80;;;;;;;4.85;76.26;99495.06;109535;1265;23268;-87
2022/01/17 09:42:19;;;;;;;13.20;7.10;;;;;;;4.87;76.34;99482.59;109624;1266;23663;-82
2022/01/17 09:44:56;;;;;;;7.70;4.00;;;;;;;4.92;76.39;99492.41;109656;1264;21981;-81
2022/01/17 09:47:29;;;;;;;11.30;4.80;;;;;;;4.96;76.34;99497.40;109319;1266;21981;-82
2022/01/17 09:50:08;;;;;;;7.30;3.30;;;;;;;4.99;76.35;99505.51;109301;1264;21987;-80
2022/01/17 09:52:53;;;;;;;10.20;4.50;;;;;;;5.01;76.21;99518.20;109333;1265;21991;-82
2022/01/17 09:55:31;;;;;;;5.70;3.90;;;;;;;5.01;76.15;99525.73;109822;1262;22046;-82
2022/01/17 09:58:28;;;;;;;11.10;4.80;;;;;;;5.00;76.16;99521.84;110179;1259;21984;-80
2022/01/17 10:01:04;;;;;;;7.70;3.50;;;;;;;4.97;76.09;99548.94;110831;1257;21980;-82
2022/01/17 10:03:41;;;;;;;18.30;9.80;;;;;;;4.93;76.08;99683.19;110398;1257;22987;-82
2022/01/17 10:06:33;;;;;;;5.90;2.40;;;;;;;4.64;73.85;99844.69;110001;1260;23076;-82
2022/01/17 10:09:31;;;;;;;22.20;7.40;;;;;;;3.53;71.13;99848.92;110273;1259;22003;-83
2022/01/17 10:12:14;;;;;;;19.40;8.70;;;;;;;2.63;71.34;99848.35;109980;1261;21999;-82
2022/01/17 10:15:15;;;;;;;19.10;9.00;;;;;;;1.99;72.42;99841.67;109765;1262;23772;-81
2022/01/17 10:17:56;;;;;;;16.50;8.20;;;;;;;1.56;73.49;99848.41;109792;1259;22042;-81
2022/01/17 10:20:53;;;;;;;12.70;5.50;;;;;;;1.29;74.35;99846.23;109392;1267;22026;-81
2022/01/17 10:26:31;;;;;;;9.80;4.90;;;;;;;0.99;75.78;99860.70;109597;1263;22036;-82
2022/01/17 10:35:34;;;;;;;15.30;7.00;;;;;;;1.02;77.49;99882.52;109494;1264;23076;-80
2022/01/17 10:38:20;;;;;;;13.80;7.80;;;;;;;1.08;77.61;99899.23;109470;1261;21977;-80
2022/01/17 10:41:01;;;;;;;8.60;4.40;;;;;;;1.11;77.62;99908.99;109406;1267;21997;-81
2022/01/17 10:43:45;;;;;;;9.60;5.20;;;;;;;1.13;77.51;99897.94;109343;1267;22086;-79
2022/01/17 10:46:27;;;;;;;9.00;4.20;;;;;;;1.16;77.51;99881.42;109278;1267;22478;-80
2022/01/17 10:49:03;;;;;;;7.50;3.30;;;;;;;1.17;77.45;99887.58;109454;1265;22055;-80
2022/01/17 10:51:37;;;;;;;6.10;3.30;;;;;;;1.18;77.33;99879.31;109738;1259;23686;-80
2022/01/17 10:54:19;;;;;;;5.60;2.20;;;;;;;1.21;77.46;99864.67;109970;1260;22164;-79
2022/01/17 10:56:56;;;;;;;4.80;2.20;;;;;;;1.24;77.14;99858.27;110070;1262;21990;-79
2022/01/17 10:59:36;;;;;;;6.70;3.60;;;;;;;1.24;76.98;99870.06;109211;1267;21987;-80
2022/01/17 11:02:08;;;;;;;8.30;4.70;;;;;;;1.28;77.19;99862.44;108982;1273;23048;-82
2022/01/17 11:04:49;;;;;;;9.10;5.00;;;;;;;1.32;76.94;99862.27;108844;1267;21987;-81
2022/01/17 11:07:21;;;;;;;6.90;4.20;;;;;;;1.34;76.85;99884.31;109488;1265;22081;-81
2022/01/17 11:09:57;;;;;;;8.70;3.90;;;;;;;1.38;76.77;99880.56;109464;1264;22018;-81
2022/01/17 11:12:30;;;;;;;10.00;4.20;;;;;;;1.44;76.86;99880.77;109316;1264;22026;-82
2022/01/17 11:15:13;;;;;;;9.40;6.20;;;;;;;1.49;76.68;99893.74;109381;1264;22081;-82
2022/01/17 11:17:57;;;;;;;9.20;4.70;;;;;;;1.54;76.61;99897.55;109132;1264;21996;-82
2022/01/17 11:20:45;;;;;;;11.00;4.40;;;;;;;1.72;78.03;99895.91;109773;1261;22776;-83
2022/01/17 11:23:20;;;;;;;5.80;3.90;;;;;;;1.93;77.87;99910.41;110069;1262;21982;-83
2022/01/17 11:25:56;;;;;;;9.90;4.20;;;;;;;2.00;76.85;99922.34;109255;1266;23613;-82
2022/01/17 11:28:34;;;;;;;8.90;4.60;;;;;;;2.05;76.43;99933.24;109568;1267;23124;-83
2022/01/17 11:31:16;;;;;;;8.30;4.50;;;;;;;2.11;76.11;99939.83;108928;1273;21999;-80
2022/01/17 11:34:04;;;;;;;12.90;7.10;;;;;;;2.21;76.04;99929.52;109041;1273;23734;-80
2022/01/17 11:37:26;;;;;;;;;;;;;;;;;;;;;
2022/01/17 11:52:48;;;;;;;;;;;;;;;;;;;;;
2022/01/17 11:56:23;;;;;;;;;;;;;;;;;;;;;
2022/01/17 12:00:35;;;;;;;;;;;;;;;;;;;;;
2022/01/17 12:08:17;;;;;;;9.10;5.00;;;;;;;2.07;74.29;99983.46;109951;1270;22023;-86
2022/01/17 12:12:09;;;;;;;7.80;4.50;;;;;;;2.15;74.22;99996.73;110554;1263;23765;-85
2022/01/17 12:15:31;;;;;;;9.10;4.60;;;;;;;2.23;74.11;100005.61;110297;1264;23602;-85
2022/01/17 12:19:07;;;;;;;14.40;8.80;;;;;;;2.30;74.02;100013.03;109984;1267;22020;-85
2022/01/17 12:22:30;;;;;;;9.90;5.30;;;;;;;2.36;73.87;100016.87;109722;1270;22265;-84
2022/01/17 12:25:26;;;;;;;8.20;4.80;;;;;;;2.41;73.72;100024.11;109685;1267;22134;-84
2022/01/17 12:28:34;;;;;;;10.60;4.90;;;;;;;2.46;73.70;100023.04;109467;1273;23627;-85
2022/01/17 12:31:12;;;;;;;13.00;6.30;;;;;;;2.51;73.64;100026.97;109399;1273;22014;-83
2022/01/17 12:33:57;;;;;;;11.80;5.80;;;;;;;2.56;73.61;100033.05;109355;1273;22316;-85
2022/01/17 12:36:50;;;;;;;11.90;5.30;;;;;;;2.59;73.41;100037.96;109266;1273;22063;-85
2022/01/17 12:39:27;;;;;;;12.90;5.80;;;;;;;2.62;73.48;100036.86;109127;1273;22003;-82
2022/01/17 12:42:05;;;;;;;8.90;5.10;;;;;;;2.66;73.45;100039.53;109120;1273;21996;-85
2022/01/17 12:44:45;;;;;;;9.70;4.10;;;;;;;2.67;73.36;100050.52;109356;1273;21998;-86
2022/01/17 12:47:15;;;;;;;13.40;4.90;;;;;;;2.68;73.37;100054.29;109514;1267;21958;-83
2022/01/17 12:50:14;;;;;;;;;;;;;;;2.71;73.41;100064.85;109969;1267;21982;-83
2022/01/17 12:52:57;;;;;;;12.80;4.90;;;;;;;2.67;73.48;100070.20;109742;1264;22311;-83
2022/01/17 12:56:18;;;;;;;10.40;4.90;;;;;;;2.68;73.61;100072.73;109736;1267;21953;-84
2022/01/17 12:58:52;;;;;;;8.90;5.00;;;;;;;2.71;73.46;100069.03;109955;1264;23599;-84
2022/01/17 13:01:31;;;;;;;9.60;4.10;;;;;;;2.74;73.49;100079.77;109788;1264;22453;-83